Terminal Aerodrome Forecast
Issued by NWS

Home | Current Version | Previous Version | Text Only | Print | Product List | Glossary On
Versions: 1 2 3 4 5 6 7 8 9 10 11 12 13 14 15 16 17 18 19 20 21 22 23 24
866
FTUS46 KHNX 170525
TAFMER
TAF
KMER 170525Z 1706/1806 VRB03KT 6SM HZ SKC
     FM171100 00000KT 4SM BR HZ SKC
     FM171700 VRB03KT 6SM HZ SKC=

USA.gov is the U.S. government's official web portal to all federal, state and local government web resources and services.